createdAt,value
2022-11-18T00:01:11.406Z,27.42
2022-11-18T00:03:39.709Z,24.90
2022-11-18T00:06:08.193Z,27.13
2022-11-18T00:08:35.508Z,25.17
2022-11-18T00:11:13.188Z,23.25
2022-11-18T00:13:59.118Z,23.77
2022-11-18T00:16:26.693Z,23.87
2022-11-18T00:18:54.082Z,27.73
2022-11-18T00:21:21.426Z,23.02
2022-11-18T00:23:49.216Z,23.83
2022-11-18T00:26:16.528Z,23.12
2022-11-18T00:28:43.950Z,27.40
2022-11-18T00:31:13.703Z,23.12
2022-11-18T00:33:41.253Z,26.35
2022-11-18T00:36:11.023Z,24.95
2022-11-18T00:38:39.576Z,23.20
2022-11-18T00:41:12.776Z,21.70
2022-11-18T00:43:41.010Z,24.10
2022-11-18T00:46:10.158Z,25.95
2022-11-18T00:48:37.981Z,22.87
2022-11-18T00:51:17.376Z,23.65
2022-11-18T00:53:45.126Z,26.12
2022-11-18T00:56:12.716Z,27.23
2022-11-18T00:58:40.017Z,31.23
2022-11-18T01:01:07.433Z,28.42
2022-11-18T01:03:35.037Z,29.25
2022-11-18T01:06:02.369Z,26.92
2022-11-18T01:08:29.693Z,30.58
2022-11-18T01:11:17.227Z,27.92
2022-11-18T01:13:44.645Z,26.98
2022-11-18T01:16:18.895Z,30.95
2022-11-18T01:18:46.297Z,36.67
2022-11-18T01:21:13.954Z,29.35
2022-11-18T01:23:41.275Z,29.55
2022-11-18T01:26:10.930Z,33.83
2022-11-18T01:28:38.547Z,29.87
2022-11-18T01:31:08.115Z,29.60
2022-11-18T01:33:35.665Z,29.02
2022-11-18T01:36:03.299Z,26.12
2022-11-18T01:38:30.949Z,27.42
2022-11-18T01:40:58.264Z,26.17
2022-11-18T01:43:25.849Z,25.98
2022-11-18T01:45:54.175Z,28.05
2022-11-18T01:48:33.324Z,28.48
2022-11-18T01:51:04.995Z,28.83
2022-11-18T01:53:34.615Z,27.95
2022-11-18T01:56:06.956Z,26.37
2022-11-18T01:58:39.685Z,27.33
2022-11-18T02:01:08.106Z,27.00
2022-11-18T02:03:36.134Z,22.42
2022-11-18T02:06:05.288Z,26.42
2022-11-18T02:08:32.943Z,25.00
2022-11-18T02:11:00.260Z,29.42
2022-11-18T02:13:27.824Z,30.67
2022-11-18T02:16:13.594Z,30.70
2022-11-18T02:18:55.258Z,31.15
2022-11-18T02:21:42.539Z,32.25
2022-11-18T02:24:22.206Z,30.90
2022-11-18T02:27:20.907Z,30.60
2022-11-18T02:30:15.438Z,28.75
2022-11-18T02:32:48.715Z,32.80
2022-11-18T02:35:28.977Z,33.80
2022-11-18T02:38:07.912Z,32.75
2022-11-18T02:40:43.651Z,35.60
2022-11-18T02:46:08.118Z,38.67
2022-11-18T02:48:39.237Z,42.28
2022-11-18T02:51:09.320Z,43.28
2022-11-18T02:53:38.605Z,41.03
2022-11-18T02:56:07.373Z,41.37
2022-11-18T02:58:34.947Z,52.40
2022-11-18T03:01:02.529Z,40.00
2022-11-18T03:03:32.208Z,42.72
2022-11-18T03:06:10.801Z,40.42
2022-11-18T03:08:42.781Z,39.47
2022-11-18T03:11:17.416Z,45.55
2022-11-18T03:14:16.004Z,50.63
2022-11-18T03:16:52.530Z,34.15
2022-11-18T03:19:24.932Z,58.90
2022-11-18T03:22:07.545Z,37.30
2022-11-18T03:24:35.664Z,42.88
2022-11-18T03:27:27.285Z,27.83
2022-11-18T03:29:59.968Z,33.50
2022-11-18T03:32:30.655Z,31.37
2022-11-18T03:35:02.426Z,30.90
2022-11-18T03:37:32.305Z,32.45
2022-11-18T03:40:23.403Z,41.42
2022-11-18T03:42:54.658Z,40.60
2022-11-18T03:45:26.633Z,56.50
2022-11-18T03:48:07.419Z,41.08
2022-11-18T03:50:39.729Z,56.95
2022-11-18T03:53:07.678Z,36.20
2022-11-18T03:55:39.966Z,56.25
2022-11-18T03:58:20.500Z,41.90
2022-11-18T04:00:50.311Z,38.45
2022-11-18T04:03:18.043Z,38.78
2022-11-18T04:05:46.570Z,36.72
2022-11-18T04:08:19.209Z,32.28
2022-11-18T04:11:00.213Z,35.40
2022-11-18T04:13:31.236Z,46.80
2022-11-18T04:15:58.912Z,64.95
2022-11-18T04:18:27.186Z,46.37
2022-11-18T04:20:54.544Z,49.80
2022-11-18T04:23:22.137Z,44.15
2022-11-18T04:25:49.448Z,44.70
2022-11-18T04:28:16.763Z,55.05
2022-11-18T04:30:44.388Z,38.53
2022-11-18T04:33:11.694Z,35.42
2022-11-18T04:35:39.004Z,40.80
2022-11-18T04:38:06.619Z,45.65
2022-11-18T04:40:33.926Z,38.03
2022-11-18T04:43:01.243Z,32.70
2022-11-18T04:45:28.866Z,33.58
2022-11-18T04:48:01.936Z,33.33
2022-11-18T04:52:58.105Z,32.70
2022-11-18T04:55:27.251Z,37.72
2022-11-18T04:57:54.943Z,36.45
2022-11-18T05:00:22.501Z,37.65
2022-11-18T05:02:49.817Z,31.37
2022-11-18T05:05:17.404Z,37.40
2022-11-18T05:07:44.753Z,38.40
2022-11-18T05:10:12.235Z,49.30
2022-11-18T05:12:52.576Z,42.15
2022-11-18T05:15:21.625Z,36.55
2022-11-18T05:17:49.542Z,40.38
2022-11-18T05:20:17.064Z,36.67
2022-11-18T05:22:44.347Z,38.15
2022-11-18T05:25:11.937Z,38.95
2022-11-18T05:27:39.248Z,38.17
2022-11-18T05:30:07.066Z,36.30
2022-11-18T05:32:34.642Z,37.10
2022-11-18T05:35:01.954Z,37.45
2022-11-18T05:37:32.582Z,42.90
2022-11-18T05:40:00.191Z,41.80
2022-11-18T05:42:46.139Z,43.83
2022-11-18T05:45:15.975Z,38.97
2022-11-18T05:48:03.050Z,38.20
2022-11-18T05:50:31.577Z,38.08
2022-11-18T05:52:58.898Z,38.30
2022-11-18T05:55:30.381Z,44.97
2022-11-18T05:57:58.062Z,40.85
2022-11-18T06:00:25.379Z,45.80
2022-11-18T06:02:54.305Z,46.60
2022-11-18T06:05:22.848Z,39.60
2022-11-18T06:07:50.201Z,44.15
2022-11-18T06:10:21.990Z,47.90
2022-11-18T06:12:51.052Z,45.40
2022-11-18T06:15:21.956Z,47.10
2022-11-18T06:17:54.131Z,46.63
2022-11-18T06:20:22.119Z,45.35
2022-11-18T06:22:50.971Z,57.92
2022-11-18T06:25:18.345Z,49.53
2022-11-18T06:27:46.440Z,59.00
2022-11-18T06:30:14.215Z,57.20
2022-11-18T06:32:41.618Z,57.30
2022-11-18T06:35:09.551Z,53.00
2022-11-18T06:37:36.947Z,87.22
2022-11-18T06:40:04.483Z,73.78
2022-11-18T06:42:50.843Z,66.22
2022-11-18T06:45:18.265Z,67.87
2022-11-18T06:47:45.902Z,63.45
2022-11-18T06:50:13.343Z,46.92
2022-11-18T06:52:40.701Z,48.95
2022-11-18T06:55:08.697Z,51.20
2022-11-18T06:57:36.012Z,42.95
2022-11-18T07:00:04.255Z,49.95
2022-11-18T07:02:31.949Z,48.35
2022-11-18T07:04:59.266Z,48.60
2022-11-18T07:07:26.706Z,44.17
2022-11-18T07:09:54.353Z,44.53
2022-11-18T07:12:21.831Z,45.08
2022-11-18T07:14:49.177Z,42.83
2022-11-18T07:17:16.825Z,49.47
2022-11-18T07:19:44.135Z,44.63
2022-11-18T07:22:11.452Z,43.17
2022-11-18T07:24:39.108Z,46.60
2022-11-18T07:27:06.413Z,43.00
2022-11-18T07:29:33.986Z,48.30
2022-11-18T07:32:01.558Z,53.45
2022-11-18T07:34:28.901Z,53.78
2022-11-18T07:36:56.229Z,46.40
2022-11-18T07:39:23.802Z,50.38
2022-11-18T07:41:51.124Z,42.50
2022-11-18T07:44:18.761Z,41.83
2022-11-18T07:46:46.442Z,40.10
2022-11-18T07:49:13.906Z,38.10
2022-11-18T07:51:41.253Z,42.92
2022-11-18T07:54:12.740Z,35.55
2022-11-18T07:56:40.303Z,36.70
2022-11-18T07:59:07.703Z,38.30
2022-11-18T08:01:35.583Z,33.97
2022-11-18T08:04:12.926Z,39.55
2022-11-18T08:06:40.743Z,33.33
2022-11-18T08:09:09.062Z,41.90
2022-11-18T08:11:36.837Z,37.75
2022-11-18T08:14:04.442Z,42.28
2022-11-18T08:16:32.073Z,35.78
2022-11-18T08:19:00.275Z,33.55
2022-11-18T08:21:27.788Z,35.17
2022-11-18T08:23:57.262Z,37.20
2022-11-18T08:26:25.177Z,36.72
2022-11-18T08:28:53.012Z,35.55
2022-11-18T08:31:25.915Z,37.97
2022-11-18T08:34:06.879Z,32.28
2022-11-18T08:36:37.078Z,31.95
2022-11-18T08:39:07.044Z,27.90
2022-11-18T08:41:40.010Z,32.95
2022-11-18T08:44:08.147Z,32.80
2022-11-18T08:46:35.712Z,31.90
2022-11-18T08:49:03.222Z,27.62
2022-11-18T08:51:31.640Z,27.95
2022-11-18T08:54:00.155Z,30.77
2022-11-18T08:56:27.743Z,26.25
2022-11-18T08:58:56.085Z,33.22
2022-11-18T09:01:23.833Z,33.47
2022-11-18T09:03:51.908Z,32.08
2022-11-18T09:06:21.216Z,34.65
2022-11-18T09:08:48.814Z,28.52
2022-11-18T09:11:27.107Z,25.77
2022-11-18T09:16:43.779Z,24.00
2022-11-18T09:19:46.028Z,22.25
2022-11-18T09:21:59.520Z,24.87
2022-11-18T09:24:27.331Z,26.08
2022-11-18T09:26:54.726Z,26.80
2022-11-18T09:29:25.936Z,25.98
2022-11-18T09:31:54.198Z,24.58
2022-11-18T09:34:22.272Z,26.45
2022-11-18T09:36:50.071Z,24.67
2022-11-18T09:39:17.749Z,30.52
2022-11-18T09:42:19.219Z,31.00
2022-11-18T09:44:51.147Z,34.20
2022-11-18T09:47:32.190Z,28.87
2022-11-18T09:50:33.877Z,34.67
2022-11-18T09:53:21.031Z,40.97
2022-11-18T09:55:50.270Z,29.48
2022-11-18T09:58:36.187Z,34.38
2022-11-18T10:01:12.371Z,31.98
2022-11-18T10:03:40.487Z,35.70
2022-11-18T10:06:23.788Z,35.13
2022-11-18T10:09:17.497Z,34.10
2022-11-18T10:12:02.372Z,32.17
2022-11-18T10:14:46.788Z,30.65
2022-11-18T10:17:39.713Z,28.75
2022-11-18T10:20:38.316Z,37.00
2022-11-18T10:23:14.788Z,36.08
2022-11-18T10:25:42.636Z,36.55
2022-11-18T10:28:30.393Z,37.35
2022-11-18T10:31:06.948Z,40.75
2022-11-18T10:33:34.693Z,33.05
2022-11-18T10:36:19.808Z,37.20
2022-11-18T10:38:50.210Z,32.00
2022-11-18T10:41:20.632Z,30.90
2022-11-18T10:43:53.592Z,32.85
2022-11-18T10:46:27.295Z,29.45
2022-11-18T10:49:16.490Z,34.03
2022-11-18T10:51:47.281Z,32.00
2022-11-18T10:54:21.549Z,33.35
2022-11-18T10:56:58.088Z,31.40
2022-11-18T10:59:31.852Z,26.37
2022-11-18T11:02:10.107Z,25.75
2022-11-18T11:04:37.865Z,26.60
2022-11-18T11:07:25.100Z,27.00
2022-11-18T11:10:04.476Z,23.55
2022-11-18T11:12:37.321Z,25.77
2022-11-18T11:15:11.213Z,23.65
2022-11-18T11:17:42.669Z,22.05
2022-11-18T11:20:21.816Z,20.25
2022-11-18T11:22:49.441Z,19.17
2022-11-18T11:28:48.542Z,21.98
2022-11-18T11:31:53.636Z,22.00
2022-11-18T11:34:48.825Z,24.20
2022-11-18T11:37:37.649Z,20.33
2022-11-18T11:40:16.497Z,22.95
2022-11-18T11:43:08.777Z,22.73
2022-11-18T11:45:46.999Z,26.27
2022-11-18T11:48:18.423Z,23.20
2022-11-18T11:51:10.848Z,26.08
2022-11-18T11:54:00.604Z,23.42
2022-11-18T11:56:59.306Z,25.70
2022-11-18T11:59:35.699Z,26.73
2022-11-18T12:02:31.503Z,22.40
2022-11-18T12:05:27.930Z,21.95
2022-11-18T12:08:00.628Z,21.60
2022-11-18T12:10:29.876Z,21.80
2022-11-18T12:13:32.495Z,24.67
2022-11-18T12:16:12.032Z,21.08
2022-11-18T12:18:46.430Z,25.20
2022-11-18T12:21:48.147Z,23.92
2022-11-18T12:24:18.270Z,27.92
2022-11-18T12:26:47.320Z,26.42
2022-11-18T12:29:20.874Z,29.35
2022-11-18T12:31:51.855Z,27.45
2022-11-18T12:34:24.872Z,31.87
2022-11-18T12:36:53.971Z,36.15
2022-11-18T12:39:24.320Z,37.58
2022-11-18T12:42:17.034Z,25.20
2022-11-18T12:44:46.622Z,24.70
2022-11-18T12:47:15.288Z,22.02
2022-11-18T12:49:45.600Z,18.77
2022-11-18T12:52:31.355Z,17.60
2022-11-18T12:55:01.394Z,17.30
2022-11-18T12:57:30.951Z,17.67
2022-11-18T12:59:58.939Z,15.13
2022-11-18T13:02:28.429Z,12.10
2022-11-18T13:05:09.428Z,12.43
2022-11-18T13:08:14.350Z,13.05
2022-11-18T13:11:17.898Z,13.32
2022-11-18T13:13:46.058Z,15.70
2022-11-18T13:16:41.619Z,16.55
2022-11-18T13:19:09.511Z,13.43
2022-11-18T13:21:55.315Z,14.30
2022-11-18T13:24:23.093Z,13.82
2022-11-18T13:26:56.383Z,12.57
2022-11-18T13:29:38.118Z,12.85
2022-11-18T13:32:22.443Z,13.98
2022-11-18T13:34:52.098Z,14.07
2022-11-18T13:37:28.232Z,14.35
2022-11-18T13:39:56.120Z,13.30
2022-11-18T13:42:24.523Z,11.50
2022-11-18T13:44:59.698Z,12.27
2022-11-18T13:47:35.912Z,12.50
2022-11-18T13:50:32.843Z,13.07
2022-11-18T13:53:06.721Z,9.82
2022-11-18T13:55:40.893Z,11.32
2022-11-18T13:58:55.759Z,12.05
2022-11-18T14:01:25.870Z,11.48
2022-11-18T14:03:59.193Z,16.85
2022-11-18T14:06:30.849Z,26.60
2022-11-18T14:09:20.161Z,21.92
2022-11-18T14:15:23.561Z,14.45
2022-11-18T14:17:54.212Z,23.55
2022-11-18T14:20:22.118Z,12.95
2022-11-18T14:22:53.563Z,13.05
2022-11-18T14:25:26.140Z,12.90
2022-11-18T14:27:56.072Z,14.68
2022-11-18T14:30:37.233Z,11.63
2022-11-18T14:33:14.484Z,12.73
2022-11-18T14:35:44.347Z,14.38
2022-11-18T14:38:35.947Z,14.57
2022-11-18T14:41:03.580Z,14.90
2022-11-18T14:43:31.438Z,15.25
2022-11-18T14:46:10.984Z,15.75
2022-11-18T14:48:38.907Z,12.77
2022-11-18T14:51:06.332Z,15.00
2022-11-18T14:53:33.632Z,14.18
2022-11-18T14:56:01.362Z,16.95
2022-11-18T14:58:28.713Z,15.38
2022-11-18T15:00:56.165Z,16.30
2022-11-18T15:03:24.199Z,15.57
2022-11-18T15:05:51.607Z,14.98
2022-11-18T15:08:18.922Z,16.92
2022-11-18T15:10:46.525Z,15.75
2022-11-18T15:13:13.827Z,17.98
2022-11-18T15:15:41.155Z,20.75
2022-11-18T15:18:09.403Z,18.65
2022-11-18T15:20:36.716Z,21.55
2022-11-18T15:23:04.080Z,17.40
2022-11-18T15:25:31.673Z,17.62
2022-11-18T15:27:59.015Z,17.52
2022-11-18T15:30:26.527Z,22.37
2022-11-18T15:32:54.105Z,18.48
2022-11-18T15:35:21.488Z,18.00
2022-11-18T15:37:48.824Z,15.70
2022-11-18T15:40:16.673Z,18.90
2022-11-18T15:42:51.541Z,16.62
2022-11-18T15:45:19.760Z,18.17
2022-11-18T15:47:47.431Z,21.48
2022-11-18T15:50:15.239Z,18.48
2022-11-18T15:52:42.861Z,18.52
2022-11-18T15:55:10.278Z,19.50
2022-11-18T15:57:37.632Z,17.17
2022-11-18T16:00:05.717Z,16.70
2022-11-18T16:02:39.660Z,18.23
2022-11-18T16:07:54.997Z,21.12
2022-11-18T16:10:41.522Z,16.98
2022-11-18T16:13:09.132Z,18.08
2022-11-18T16:15:48.085Z,19.58
2022-11-18T16:18:17.876Z,23.90
2022-11-18T16:20:45.464Z,21.95
2022-11-18T16:23:13.051Z,22.02
2022-11-18T16:25:44.609Z,20.65
2022-11-18T16:28:12.214Z,24.42
2022-11-18T16:30:58.209Z,22.52
2022-11-18T16:33:25.784Z,22.30
2022-11-18T16:35:53.250Z,20.65
2022-11-18T16:38:20.723Z,19.33
2022-11-18T16:40:55.684Z,21.23
2022-11-18T16:43:24.133Z,19.08
2022-11-18T16:45:52.881Z,19.80
2022-11-18T16:48:21.206Z,20.55
2022-11-18T16:51:18.438Z,21.83
2022-11-18T16:53:53.487Z,22.35
2022-11-18T16:56:22.175Z,20.30
2022-11-18T16:58:49.783Z,22.77
2022-11-18T17:01:22.062Z,21.00
2022-11-18T17:03:53.361Z,24.25
2022-11-18T17:06:21.818Z,23.20
2022-11-18T17:08:49.188Z,22.08
2022-11-18T17:11:23.482Z,22.45
2022-11-18T17:13:56.329Z,20.63
2022-11-18T17:16:26.237Z,18.37
2022-11-18T17:18:55.510Z,22.80
2022-11-18T17:21:23.381Z,19.75
2022-11-18T17:23:52.553Z,26.85
2022-11-18T17:26:23.259Z,22.75
2022-11-18T17:28:51.303Z,27.20
2022-11-18T17:31:21.263Z,25.65
2022-11-18T17:33:49.521Z,27.17
2022-11-18T17:36:18.978Z,29.23
2022-11-18T17:38:48.754Z,36.28
2022-11-18T17:44:11.112Z,33.33
2022-11-18T17:46:38.902Z,32.03
2022-11-18T17:49:12.584Z,33.15
2022-11-18T17:51:40.694Z,30.23
2022-11-18T17:54:09.159Z,35.92
2022-11-18T17:56:36.496Z,36.50
2022-11-18T17:59:05.091Z,34.42
2022-11-18T18:01:32.751Z,33.45
2022-11-18T18:04:00.830Z,37.53
2022-11-18T18:06:28.392Z,40.40
2022-11-18T18:08:57.170Z,37.35
2022-11-18T18:11:26.698Z,38.88
2022-11-18T18:14:12.927Z,40.03
2022-11-18T18:16:48.642Z,34.38
2022-11-18T18:19:21.368Z,36.92
2022-11-18T18:21:49.208Z,36.03
2022-11-18T18:24:18.467Z,33.55
2022-11-18T18:26:46.277Z,34.00
2022-11-18T18:29:15.040Z,34.63
2022-11-18T18:31:42.668Z,38.83
2022-11-18T18:34:10.543Z,36.00
2022-11-18T18:36:38.507Z,36.08
2022-11-18T18:39:06.259Z,32.08
2022-11-18T18:41:37.138Z,34.67
2022-11-18T18:44:05.311Z,32.10
2022-11-18T18:46:33.096Z,31.75
2022-11-18T18:49:12.129Z,35.53
2022-11-18T18:51:42.146Z,35.03
2022-11-18T18:54:11.234Z,37.63
2022-11-18T18:56:39.251Z,34.88
2022-11-18T18:59:07.926Z,37.35
2022-11-18T19:01:35.940Z,32.95
2022-11-18T19:04:05.879Z,39.65
2022-11-18T19:06:58.138Z,34.67
2022-11-18T19:09:23.836Z,33.45
2022-11-18T19:12:10.703Z,32.17
2022-11-18T19:14:38.097Z,33.47
2022-11-18T19:17:10.785Z,32.70
2022-11-18T19:19:59.590Z,37.80
2022-11-18T19:22:31.325Z,33.72
2022-11-18T19:25:00.445Z,32.42
2022-11-18T19:27:28.965Z,34.58
2022-11-18T19:29:56.754Z,32.65
2022-11-18T19:32:24.162Z,30.50
2022-11-18T19:34:52.200Z,35.65
2022-11-18T19:37:19.782Z,33.63
2022-11-18T19:39:47.598Z,27.60
2022-11-18T19:42:15.234Z,32.05
2022-11-18T19:44:42.997Z,29.95
2022-11-18T19:47:10.857Z,34.10
2022-11-18T19:49:39.102Z,28.05
2022-11-18T19:52:07.049Z,30.27
2022-11-18T19:54:34.893Z,32.75
2022-11-18T19:57:04.165Z,38.88
2022-11-18T19:59:31.889Z,32.00
2022-11-18T20:01:59.474Z,29.77
2022-11-18T20:04:27.315Z,29.85
2022-11-18T20:06:55.180Z,29.52
2022-11-18T20:09:23.178Z,24.42
2022-11-18T20:11:51.113Z,24.45
2022-11-18T20:14:18.527Z,17.12
2022-11-18T20:16:46.348Z,17.45
2022-11-18T20:19:14.423Z,17.60
2022-11-18T20:21:43.535Z,16.62
2022-11-18T20:24:16.133Z,16.30
2022-11-18T20:26:44.909Z,16.40
2022-11-18T20:29:13.231Z,14.80
2022-11-18T20:31:41.447Z,15.15
2022-11-18T20:34:13.005Z,13.40
2022-11-18T20:36:40.922Z,13.35
2022-11-18T20:39:15.055Z,12.93
2022-11-18T20:41:43.581Z,12.18
2022-11-18T20:44:11.555Z,14.70
2022-11-18T20:46:39.401Z,11.75
2022-11-18T20:49:06.969Z,10.65
2022-11-18T20:51:35.136Z,13.82
2022-11-18T20:54:07.726Z,10.75
2022-11-18T20:56:35.487Z,11.30
2022-11-18T20:59:03.339Z,10.57
2022-11-18T21:01:32.035Z,12.82
2022-11-18T21:04:03.661Z,11.23
2022-11-18T21:06:32.453Z,10.98
2022-11-18T21:09:04.731Z,10.20
2022-11-18T21:11:36.340Z,9.82
2022-11-18T21:14:24.708Z,13.40
2022-11-18T21:17:03.552Z,14.65
2022-11-18T21:19:32.907Z,10.98
2022-11-18T21:22:00.336Z,10.98
2022-11-18T21:24:29.611Z,13.50
2022-11-18T21:26:58.738Z,11.35
2022-11-18T21:29:28.023Z,11.73
2022-11-18T21:31:56.413Z,10.85
2022-11-18T21:34:24.532Z,10.15
2022-11-18T21:36:54.932Z,10.45
2022-11-18T21:39:24.327Z,10.82
2022-11-18T21:41:56.373Z,10.88
2022-11-18T21:44:25.954Z,10.13
2022-11-18T21:46:53.719Z,11.10
2022-11-18T21:49:21.566Z,11.23
2022-11-18T21:51:49.214Z,11.98
2022-11-18T21:54:18.385Z,11.80
2022-11-18T21:56:46.022Z,12.00
2022-11-18T21:59:13.349Z,12.63
2022-11-18T22:01:40.932Z,12.13
2022-11-18T22:04:08.489Z,13.32
2022-11-18T22:06:35.844Z,11.40
2022-11-18T22:09:04.718Z,12.32
2022-11-18T22:11:32.382Z,12.60
2022-11-18T22:13:59.746Z,11.93
2022-11-18T22:16:27.210Z,13.75
2022-11-18T22:18:59.103Z,13.18
2022-11-18T22:21:28.662Z,12.37
2022-11-18T22:23:59.206Z,13.48
2022-11-18T22:26:27.530Z,14.77
2022-11-18T22:28:56.831Z,15.15
2022-11-18T22:31:26.500Z,13.93
2022-11-18T22:33:54.539Z,15.95
2022-11-18T22:36:24.411Z,20.62
2022-11-18T22:38:52.908Z,18.85
2022-11-18T22:41:41.473Z,16.15
2022-11-18T22:44:09.561Z,15.10
2022-11-18T22:46:37.925Z,16.00
2022-11-18T22:49:07.309Z,15.30
2022-11-18T22:51:35.709Z,15.65
2022-11-18T22:56:51.558Z,18.23
2022-11-18T22:59:19.187Z,15.02
2022-11-18T23:01:46.590Z,16.08
2022-11-18T23:04:14.256Z,17.80
2022-11-18T23:06:41.561Z,17.08
2022-11-18T23:09:09.768Z,18.25
2022-11-18T23:12:06.394Z,18.67
2022-11-18T23:14:33.822Z,17.52
2022-11-18T23:17:01.429Z,17.50
2022-11-18T23:19:28.753Z,16.37
2022-11-18T23:21:56.098Z,20.15
2022-11-18T23:24:23.675Z,18.65
2022-11-18T23:26:51.197Z,19.52
2022-11-18T23:29:18.995Z,19.33
2022-11-18T23:31:46.870Z,20.17
2022-11-18T23:34:15.505Z,17.73
2022-11-18T23:36:43.302Z,20.30
2022-11-18T23:39:11.460Z,18.62
2022-11-18T23:41:39.537Z,18.75
2022-11-18T23:44:07.142Z,18.95
2022-11-18T23:46:34.815Z,17.73
2022-11-18T23:49:02.154Z,20.27
2022-11-18T23:51:29.478Z,18.15
2022-11-18T23:53:57.638Z,21.12
2022-11-18T23:56:26.635Z,21.20
2022-11-18T23:58:55.270Z,18.65
